GCR221 ELLX-LPPT
Flight info
| Callsign | GCR221 |
|---|---|
| Flight time | N/A |
| Altitude | 35000 |
| Route | RAPOR DCT GIMER DCT BSN DCT ESTOC UT300 PON UN872 ERIGA UZ218 FUJTI DCT BAKUP DCT BATAX DCT INBOM |
| Aircraft | R722/M-SDFGRWY/S |
Departure
| Time | 2026-05-06 11:44 |
|---|---|
| Airport | Luxembourg-Findel International Airport (ELLX) |
Arrival
| Time | N/A |
|---|---|
| Airport | Lisbon Humberto Delgado Airport (LPPT) |
| Time | Latitude | Longitude | Altitude | Speed | Heading |
|---|---|---|---|---|---|
| 2026-05-06 11:31 | 49.63536 | 6.22682 | 1218 ft | 0 kts | 243° |
| 2026-05-06 11:39 | 49.63537 | 6.22684 | 1218 ft | 2 kts | 243° |
| 2026-05-06 11:39 | 49.63548 | 6.22707 | 1219 ft | 3 kts | 208° |
| 2026-05-06 11:39 | 49.63561 | 6.22709 | 1220 ft | 0 kts | 167° |
| 2026-05-06 11:40 | 49.63506 | 6.22765 | 1216 ft | 18 kts | 124° |
| 2026-05-06 11:41 | 49.63499 | 6.22937 | 1219 ft | 16 kts | 66° |
| 2026-05-06 11:41 | 49.63548 | 6.23058 | 1222 ft | 13 kts | 57° |
| 2026-05-06 11:41 | 49.63598 | 6.23172 | 1223 ft | 13 kts | 55° |
| 2026-05-06 11:41 | 49.63639 | 6.23274 | 1225 ft | 11 kts | 58° |
| 2026-05-06 11:42 | 49.63668 | 6.23368 | 1225 ft | 8 kts | 93° |
| 2026-05-06 11:42 | 49.63654 | 6.23438 | 1224 ft | 5 kts | 140° |
| 2026-05-06 11:42 | 49.63632 | 6.23460 | 1224 ft | 0 kts | 148° |
| 2026-05-06 11:43 | 49.63615 | 6.23475 | 1225 ft | 7 kts | 153° |
| 2026-05-06 11:43 | 49.63549 | 6.23507 | 1227 ft | 12 kts | 187° |
| 2026-05-06 11:44 | 49.63191 | 6.22627 | 1212 ft | 121 kts | 239° |
| 2026-05-06 11:44 | 49.62725 | 6.21248 | 1324 ft | 170 kts | 244° |
| 2026-05-06 11:44 | 49.62106 | 6.19592 | 1752 ft | 200 kts | 242° |
| 2026-05-06 11:44 | 49.61427 | 6.17788 | 2696 ft | 200 kts | 242° |
| 2026-05-06 11:45 | 49.60747 | 6.15979 | 3677 ft | 203 kts | 243° |
| 2026-05-06 11:45 | 49.60015 | 6.13989 | 3888 ft | 242 kts | 242° |
| 2026-05-06 11:45 | 49.59209 | 6.11773 | 5099 ft | 232 kts | 242° |
| 2026-05-06 11:45 | 49.58449 | 6.09686 | 6207 ft | 234 kts | 241° |
| 2026-05-06 11:46 | 49.57678 | 6.07559 | 6941 ft | 242 kts | 241° |
| 2026-05-06 11:46 | 49.56878 | 6.05340 | 7869 ft | 243 kts | 241° |
| 2026-05-06 11:46 | 49.56074 | 6.03096 | 8706 ft | 248 kts | 241° |
| 2026-05-06 11:46 | 49.55274 | 6.00861 | 9507 ft | 251 kts | 241° |
| 2026-05-06 11:47 | 49.54442 | 5.98530 | 10289 ft | 255 kts | 240° |
| 2026-05-06 11:47 | 49.53657 | 5.96319 | 11057 ft | 257 kts | 240° |
| 2026-05-06 11:47 | 49.52782 | 5.93848 | 11861 ft | 260 kts | 240° |
| 2026-05-06 11:47 | 49.51932 | 5.91429 | 12616 ft | 262 kts | 240° |
| 2026-05-06 11:48 | 49.51106 | 5.89067 | 13330 ft | 265 kts | 240° |
| 2026-05-06 11:48 | 49.50254 | 5.86624 | 14040 ft | 267 kts | 240° |
| 2026-05-06 11:48 | 49.49389 | 5.84135 | 14752 ft | 268 kts | 240° |
| 2026-05-06 11:48 | 49.48537 | 5.81666 | 15418 ft | 271 kts | 240° |
| 2026-05-06 11:49 | 49.47665 | 5.79128 | 16083 ft | 273 kts | 240° |
| 2026-05-06 11:49 | 49.46804 | 5.76625 | 16674 ft | 277 kts | 241° |
| 2026-05-06 11:49 | 49.45926 | 5.74064 | 17290 ft | 278 kts | 241° |
| 2026-05-06 11:49 | 49.45041 | 5.71477 | 17885 ft | 281 kts | 241° |
| 2026-05-06 11:50 | 49.44171 | 5.68922 | 18466 ft | 282 kts | 241° |
| 2026-05-06 11:50 | 49.43278 | 5.66297 | 19010 ft | 285 kts | 241° |
| 2026-05-06 11:50 | 49.42422 | 5.63775 | 19486 ft | 288 kts | 241° |
| 2026-05-06 11:50 | 49.41493 | 5.61035 | 20037 ft | 290 kts | 242° |
| 2026-05-06 11:51 | 49.40581 | 5.58337 | 20582 ft | 292 kts | 242° |
| 2026-05-06 11:51 | 49.39688 | 5.55685 | 21031 ft | 296 kts | 242° |
| 2026-05-06 11:51 | 49.38757 | 5.52908 | 21530 ft | 298 kts | 242° |
| 2026-05-06 11:51 | 49.37859 | 5.50219 | 22019 ft | 300 kts | 242° |
| 2026-05-06 11:52 | 49.36914 | 5.47378 | 22506 ft | 302 kts | 242° |
| 2026-05-06 11:52 | 49.35971 | 5.44537 | 22968 ft | 305 kts | 242° |
| 2026-05-06 11:52 | 49.35048 | 5.41748 | 23410 ft | 308 kts | 242° |
| 2026-05-06 11:52 | 49.34100 | 5.38871 | 23885 ft | 310 kts | 242° |
| 2026-05-06 11:53 | 49.33148 | 5.35981 | 24305 ft | 313 kts | 243° |
| 2026-05-06 11:53 | 49.32300 | 5.33028 | 24694 ft | 317 kts | 256° |
| 2026-05-06 11:53 | 49.32045 | 5.29715 | 25114 ft | 322 kts | 267° |
| 2026-05-06 11:53 | 49.32116 | 5.26400 | 25520 ft | 327 kts | 272° |
| 2026-05-06 11:54 | 49.32341 | 5.22976 | 25935 ft | 330 kts | 272° |
| 2026-05-06 11:54 | 49.32512 | 5.19594 | 26350 ft | 332 kts | 270° |
| 2026-05-06 11:54 | 49.32610 | 5.16164 | 26739 ft | 335 kts | 269° |
| 2026-05-06 11:54 | 49.32724 | 5.12587 | 27164 ft | 338 kts | 271° |
| 2026-05-06 11:55 | 49.32874 | 5.09035 | 27574 ft | 342 kts | 271° |
| 2026-05-06 11:55 | 49.33018 | 5.05511 | 27978 ft | 344 kts | 270° |
| 2026-05-06 11:55 | 49.33144 | 5.01907 | 28297 ft | 350 kts | 270° |
| 2026-05-06 11:55 | 49.33273 | 4.98229 | 28599 ft | 357 kts | 270° |
| 2026-05-06 11:56 | 49.33412 | 4.94574 | 28899 ft | 364 kts | 270° |
| 2026-05-06 11:56 | 49.33604 | 4.89388 | 29314 ft | 374 kts | 270° |
| 2026-05-06 11:56 | 49.33877 | 4.81614 | 29922 ft | 389 kts | 271° |
| 2026-05-06 11:56 | 49.34172 | 4.73293 | 30548 ft | 404 kts | 271° |
| 2026-05-06 11:57 | 49.34465 | 4.64744 | 31162 ft | 419 kts | 271° |
| 2026-05-06 11:57 | 49.34757 | 4.56021 | 31762 ft | 432 kts | 271° |
| 2026-05-06 11:57 | 49.35051 | 4.47052 | 32348 ft | 445 kts | 271° |
| 2026-05-06 11:57 | 49.35352 | 4.37702 | 32961 ft | 450 kts | 271° |
| 2026-05-06 11:58 | 49.35638 | 4.28461 | 33546 ft | 454 kts | 271° |
| 2026-05-06 11:58 | 49.35922 | 4.19166 | 34115 ft | 457 kts | 271° |
| 2026-05-06 11:58 | 49.36204 | 4.09551 | 34705 ft | 461 kts | 271° |
| 2026-05-06 11:58 | 49.36467 | 3.99925 | 35069 ft | 469 kts | 268° |
| 2026-05-06 11:59 | 49.35304 | 3.90331 | 35100 ft | 466 kts | 253° |
| 2026-05-06 11:59 | 49.33396 | 3.80954 | 35072 ft | 468 kts | 252° |
| 2026-05-06 11:59 | 49.29885 | 3.62408 | 35081 ft | 467 kts | 252° |
| 2026-05-06 12:00 | 49.26274 | 3.43636 | 35080 ft | 468 kts | 252° |
| 2026-05-06 12:00 | 49.22691 | 3.25237 | 35092 ft | 469 kts | 252° |
| 2026-05-06 12:01 | 49.19139 | 3.07164 | 35096 ft | 469 kts | 252° |
| 2026-05-06 12:01 | 49.17984 | 2.97499 | 35101 ft | 472 kts | 263° |
| 2026-05-06 12:01 | 49.17801 | 2.94127 | 35104 ft | 472 kts | 264° |
| 2026-05-06 12:02 | 49.17228 | 2.86175 | 35087 ft | 438 kts | 259° |
| 2026-05-06 12:02 | 49.16393 | 2.78200 | 35080 ft | 390 kts | 262° |